sensor_id;sensor_type;location;lat;lon;timestamp;P1;durP1;ratioP1;P2;durP2;ratioP2
9100;SDS011;4586;52.518;13.486;2022-09-25T00:00:25;3.20;;;2.83;;
9100;SDS011;4586;52.518;13.486;2022-09-25T00:04:26;3.25;;;2.88;;
9100;SDS011;4586;52.518;13.486;2022-09-25T00:08:27;2.88;;;2.53;;
9100;SDS011;4586;52.518;13.486;2022-09-25T00:12:28;3.63;;;2.55;;
9100;SDS011;4586;52.518;13.486;2022-09-25T00:16:29;3.55;;;2.90;;
9100;SDS011;4586;52.518;13.486;2022-09-25T00:20:30;4.22;;;3.00;;
9100;SDS011;4586;52.518;13.486;2022-09-25T00:24:32;3.03;;;2.42;;
9100;SDS011;4586;52.518;13.486;2022-09-25T00:28:34;2.90;;;2.35;;
9100;SDS011;4586;52.518;13.486;2022-09-25T00:32:35;3.30;;;2.72;;
9100;SDS011;4586;52.518;13.486;2022-09-25T00:36:36;4.07;;;3.35;;
9100;SDS011;4586;52.518;13.486;2022-09-25T00:40:37;2.72;;;2.53;;
9100;SDS011;4586;52.518;13.486;2022-09-25T00:45:21;3.40;;;2.70;;
9100;SDS011;4586;52.518;13.486;2022-09-25T00:49:04;3.72;;;2.45;;
9100;SDS011;4586;52.518;13.486;2022-09-25T00:53:13;2.60;;;2.20;;
9100;SDS011;4586;52.518;13.486;2022-09-25T00:57:17;3.08;;;2.53;;
9100;SDS011;4586;52.518;13.486;2022-09-25T01:01:20;3.30;;;2.53;;
9100;SDS011;4586;52.518;13.486;2022-09-25T01:05:23;2.85;;;2.60;;
9100;SDS011;4586;52.518;13.486;2022-09-25T01:09:25;3.22;;;2.63;;
9100;SDS011;4586;52.518;13.486;2022-09-25T01:13:27;3.33;;;2.60;;
9100;SDS011;4586;52.518;13.486;2022-09-25T01:17:29;3.80;;;2.40;;
9100;SDS011;4586;52.518;13.486;2022-09-25T01:21:44;4.07;;;2.65;;
9100;SDS011;4586;52.518;13.486;2022-09-25T01:26:12;3.17;;;2.67;;
9100;SDS011;4586;52.518;13.486;2022-09-25T01:30:13;3.05;;;2.75;;
9100;SDS011;4586;52.518;13.486;2022-09-25T01:34:16;2.33;;;2.08;;
9100;SDS011;4586;52.518;13.486;2022-09-25T01:38:25;2.35;;;2.15;;
9100;SDS011;4586;52.518;13.486;2022-09-25T01:42:28;3.85;;;2.13;;
9100;SDS011;4586;52.518;13.486;2022-09-25T01:46:32;3.05;;;2.35;;
9100;SDS011;4586;52.518;13.486;2022-09-25T01:50:37;2.92;;;2.60;;
9100;SDS011;4586;52.518;13.486;2022-09-25T01:54:43;3.45;;;2.72;;
9100;SDS011;4586;52.518;13.486;2022-09-25T01:58:46;2.75;;;2.38;;
9100;SDS011;4586;52.518;13.486;2022-09-25T02:02:59;2.60;;;2.40;;
9100;SDS011;4586;52.518;13.486;2022-09-25T02:07:06;5.60;;;2.40;;
9100;SDS011;4586;52.518;13.486;2022-09-25T02:11:08;3.00;;;2.60;;
9100;SDS011;4586;52.518;13.486;2022-09-25T02:15:11;2.72;;;2.45;;
9100;SDS011;4586;52.518;13.486;2022-09-25T02:19:13;2.67;;;2.40;;
9100;SDS011;4586;52.518;13.486;2022-09-25T02:23:16;2.25;;;2.05;;
9100;SDS011;4586;52.518;13.486;2022-09-25T02:27:18;3.28;;;2.75;;
9100;SDS011;4586;52.518;13.486;2022-09-25T02:31:20;3.10;;;2.20;;
9100;SDS011;4586;52.518;13.486;2022-09-25T02:35:23;2.70;;;2.50;;
9100;SDS011;4586;52.518;13.486;2022-09-25T02:39:24;2.50;;;2.30;;
9100;SDS011;4586;52.518;13.486;2022-09-25T02:43:37;2.97;;;2.70;;
9100;SDS011;4586;52.518;13.486;2022-09-25T02:51:54;2.90;;;2.53;;
9100;SDS011;4586;52.518;13.486;2022-09-25T02:56:02;4.80;;;2.92;;
9100;SDS011;4586;52.518;13.486;2022-09-25T03:00:06;2.80;;;2.50;;
9100;SDS011;4586;52.518;13.486;2022-09-25T03:04:07;3.38;;;2.78;;
9100;SDS011;4586;52.518;13.486;2022-09-25T03:08:08;3.42;;;2.50;;
9100;SDS011;4586;52.518;13.486;2022-09-25T03:12:10;3.65;;;2.88;;
9100;SDS011;4586;52.518;13.486;2022-09-25T03:20:30;3.08;;;2.75;;
9100;SDS011;4586;52.518;13.486;2022-09-25T03:24:31;3.85;;;2.88;;
9100;SDS011;4586;52.518;13.486;2022-09-25T03:28:33;3.47;;;2.72;;
9100;SDS011;4586;52.518;13.486;2022-09-25T03:32:34;3.15;;;2.70;;
9100;SDS011;4586;52.518;13.486;2022-09-25T03:36:35;3.90;;;2.63;;
9100;SDS011;4586;52.518;13.486;2022-09-25T03:40:36;4.13;;;2.90;;
9100;SDS011;4586;52.518;13.486;2022-09-25T03:44:37;3.58;;;2.88;;
9100;SDS011;4586;52.518;13.486;2022-09-25T03:48:38;3.10;;;2.80;;
9100;SDS011;4586;52.518;13.486;2022-09-25T03:52:39;3.92;;;3.00;;
9100;SDS011;4586;52.518;13.486;2022-09-25T03:56:40;5.28;;;3.28;;
9100;SDS011;4586;52.518;13.486;2022-09-25T04:00:41;2.75;;;2.53;;
9100;SDS011;4586;52.518;13.486;2022-09-25T04:04:42;4.03;;;3.03;;
9100;SDS011;4586;52.518;13.486;2022-09-25T04:08:43;5.38;;;3.00;;
9100;SDS011;4586;52.518;13.486;2022-09-25T04:12:44;3.33;;;2.88;;
9100;SDS011;4586;52.518;13.486;2022-09-25T04:16:45;3.63;;;2.83;;
9100;SDS011;4586;52.518;13.486;2022-09-25T04:20:46;2.97;;;2.58;;
9100;SDS011;4586;52.518;13.486;2022-09-25T04:24:47;4.53;;;2.75;;
9100;SDS011;4586;52.518;13.486;2022-09-25T04:28:48;3.83;;;3.13;;
9100;SDS011;4586;52.518;13.486;2022-09-25T04:32:49;3.45;;;2.92;;
9100;SDS011;4586;52.518;13.486;2022-09-25T04:36:50;7.68;;;3.88;;
9100;SDS011;4586;52.518;13.486;2022-09-25T04:40:51;4.38;;;3.50;;
9100;SDS011;4586;52.518;13.486;2022-09-25T04:44:52;4.22;;;3.40;;
9100;SDS011;4586;52.518;13.486;2022-09-25T04:48:53;4.13;;;3.30;;
9100;SDS011;4586;52.518;13.486;2022-09-25T04:52:57;5.13;;;3.60;;
9100;SDS011;4586;52.518;13.486;2022-09-25T04:56:59;4.22;;;3.22;;
9100;SDS011;4586;52.518;13.486;2022-09-25T05:01:04;5.05;;;3.67;;
9100;SDS011;4586;52.518;13.486;2022-09-25T05:05:05;4.43;;;3.35;;
9100;SDS011;4586;52.518;13.486;2022-09-25T05:09:06;3.92;;;3.30;;
9100;SDS011;4586;52.518;13.486;2022-09-25T05:13:08;3.28;;;2.97;;
9100;SDS011;4586;52.518;13.486;2022-09-25T05:17:10;3.80;;;3.45;;
9100;SDS011;4586;52.518;13.486;2022-09-25T05:21:11;4.47;;;3.35;;
9100;SDS011;4586;52.518;13.486;2022-09-25T05:25:12;5.50;;;3.90;;
9100;SDS011;4586;52.518;13.486;2022-09-25T05:29:13;5.38;;;3.25;;
9100;SDS011;4586;52.518;13.486;2022-09-25T05:33:14;4.50;;;3.38;;
9100;SDS011;4586;52.518;13.486;2022-09-25T05:37:15;6.15;;;3.50;;
9100;SDS011;4586;52.518;13.486;2022-09-25T05:41:16;5.32;;;3.50;;
9100;SDS011;4586;52.518;13.486;2022-09-25T05:45:17;4.05;;;3.45;;
9100;SDS011;4586;52.518;13.486;2022-09-25T05:49:19;5.53;;;3.63;;
9100;SDS011;4586;52.518;13.486;2022-09-25T05:53:19;3.67;;;3.25;;
9100;SDS011;4586;52.518;13.486;2022-09-25T05:57:21;4.25;;;3.60;;
9100;SDS011;4586;52.518;13.486;2022-09-25T06:01:22;5.05;;;3.90;;
9100;SDS011;4586;52.518;13.486;2022-09-25T06:05:23;5.63;;;3.72;;
9100;SDS011;4586;52.518;13.486;2022-09-25T06:09:24;4.57;;;3.58;;
9100;SDS011;4586;52.518;13.486;2022-09-25T06:13:25;5.68;;;3.88;;
9100;SDS011;4586;52.518;13.486;2022-09-25T06:17:26;3.90;;;3.35;;
9100;SDS011;4586;52.518;13.486;2022-09-25T06:21:27;6.93;;;3.63;;
9100;SDS011;4586;52.518;13.486;2022-09-25T06:25:29;7.25;;;3.75;;
9100;SDS011;4586;52.518;13.486;2022-09-25T06:29:30;6.97;;;4.85;;
9100;SDS011;4586;52.518;13.486;2022-09-25T06:33:31;5.93;;;4.50;;
9100;SDS011;4586;52.518;13.486;2022-09-25T06:37:32;4.82;;;4.28;;
9100;SDS011;4586;52.518;13.486;2022-09-25T06:41:33;4.75;;;4.28;;
9100;SDS011;4586;52.518;13.486;2022-09-25T06:45:35;5.40;;;4.13;;
9100;SDS011;4586;52.518;13.486;2022-09-25T06:49:37;5.20;;;4.07;;
9100;SDS011;4586;52.518;13.486;2022-09-25T06:53:38;6.72;;;4.72;;
9100;SDS011;4586;52.518;13.486;2022-09-25T06:57:39;5.75;;;4.30;;
9100;SDS011;4586;52.518;13.486;2022-09-25T07:01:40;6.03;;;4.60;;
9100;SDS011;4586;52.518;13.486;2022-09-25T07:05:41;7.03;;;4.45;;
9100;SDS011;4586;52.518;13.486;2022-09-25T07:09:42;5.53;;;4.30;;
9100;SDS011;4586;52.518;13.486;2022-09-25T07:13:43;6.05;;;4.50;;
9100;SDS011;4586;52.518;13.486;2022-09-25T07:17:44;6.28;;;4.20;;
9100;SDS011;4586;52.518;13.486;2022-09-25T07:21:45;7.90;;;4.57;;
9100;SDS011;4586;52.518;13.486;2022-09-25T07:25:46;5.07;;;4.57;;
9100;SDS011;4586;52.518;13.486;2022-09-25T07:29:47;7.75;;;4.60;;
9100;SDS011;4586;52.518;13.486;2022-09-25T07:33:48;4.97;;;4.38;;
9100;SDS011;4586;52.518;13.486;2022-09-25T07:37:49;7.60;;;4.97;;
9100;SDS011;4586;52.518;13.486;2022-09-25T07:41:52;6.07;;;4.60;;
9100;SDS011;4586;52.518;13.486;2022-09-25T07:45:53;7.70;;;4.97;;
9100;SDS011;4586;52.518;13.486;2022-09-25T07:49:54;7.07;;;4.88;;
9100;SDS011;4586;52.518;13.486;2022-09-25T07:53:56;5.95;;;4.82;;
9100;SDS011;4586;52.518;13.486;2022-09-25T07:57:57;7.22;;;5.22;;
9100;SDS011;4586;52.518;13.486;2022-09-25T08:01:58;6.95;;;4.47;;
9100;SDS011;4586;52.518;13.486;2022-09-25T08:06:00;5.07;;;4.47;;
9100;SDS011;4586;52.518;13.486;2022-09-25T08:10:01;7.60;;;4.95;;
9100;SDS011;4586;52.518;13.486;2022-09-25T08:14:02;6.95;;;4.60;;
9100;SDS011;4586;52.518;13.486;2022-09-25T08:18:03;7.43;;;4.97;;
9100;SDS011;4586;52.518;13.486;2022-09-25T08:22:04;6.70;;;4.38;;
9100;SDS011;4586;52.518;13.486;2022-09-25T08:26:05;6.93;;;4.80;;
9100;SDS011;4586;52.518;13.486;2022-09-25T08:30:07;4.50;;;4.10;;
9100;SDS011;4586;52.518;13.486;2022-09-25T08:34:08;8.77;;;5.30;;
9100;SDS011;4586;52.518;13.486;2022-09-25T08:38:10;6.63;;;4.85;;
9100;SDS011;4586;52.518;13.486;2022-09-25T08:42:15;5.25;;;4.75;;
9100;SDS011;4586;52.518;13.486;2022-09-25T08:46:19;6.68;;;4.30;;
9100;SDS011;4586;52.518;13.486;2022-09-25T08:50:23;7.28;;;5.20;;
9100;SDS011;4586;52.518;13.486;2022-09-25T08:54:25;5.13;;;4.65;;
9100;SDS011;4586;52.518;13.486;2022-09-25T08:58:30;5.18;;;4.28;;
9100;SDS011;4586;52.518;13.486;2022-09-25T09:02:41;6.03;;;4.75;;
9100;SDS011;4586;52.518;13.486;2022-09-25T09:06:43;6.57;;;4.97;;
9100;SDS011;4586;52.518;13.486;2022-09-25T09:10:45;8.88;;;5.00;;
9100;SDS011;4586;52.518;13.486;2022-09-25T09:14:49;6.90;;;5.28;;
9100;SDS011;4586;52.518;13.486;2022-09-25T09:18:52;6.78;;;4.80;;
9100;SDS011;4586;52.518;13.486;2022-09-25T09:22:53;7.05;;;4.65;;
9100;SDS011;4586;52.518;13.486;2022-09-25T09:31:15;5.68;;;4.57;;
9100;SDS011;4586;52.518;13.486;2022-09-25T09:43:32;6.57;;;4.60;;
9100;SDS011;4586;52.518;13.486;2022-09-25T09:55:51;7.88;;;5.18;;
9100;SDS011;4586;52.518;13.486;2022-09-25T09:59:55;6.20;;;4.70;;
9100;SDS011;4586;52.518;13.486;2022-09-25T10:04:02;5.75;;;4.57;;
9100;SDS011;4586;52.518;13.486;2022-09-25T10:08:03;7.88;;;5.07;;
9100;SDS011;4586;52.518;13.486;2022-09-25T10:12:12;8.50;;;5.40;;
9100;SDS011;4586;52.518;13.486;2022-09-25T10:16:15;7.35;;;4.68;;
9100;SDS011;4586;52.518;13.486;2022-09-25T10:20:18;4.97;;;3.88;;
9100;SDS011;4586;52.518;13.486;2022-09-25T10:28:40;6.57;;;5.15;;
9100;SDS011;4586;52.518;13.486;2022-09-25T10:36:45;9.88;;;5.45;;
9100;SDS011;4586;52.518;13.486;2022-09-25T10:40:54;10.85;;;6.57;;
9100;SDS011;4586;52.518;13.486;2022-09-25T10:44:57;8.57;;;5.35;;
9100;SDS011;4586;52.518;13.486;2022-09-25T10:49:05;5.57;;;4.63;;
9100;SDS011;4586;52.518;13.486;2022-09-25T10:53:26;7.95;;;5.20;;
9100;SDS011;4586;52.518;13.486;2022-09-25T10:57:29;11.13;;;5.68;;
9100;SDS011;4586;52.518;13.486;2022-09-25T11:01:35;6.30;;;4.95;;
9100;SDS011;4586;52.518;13.486;2022-09-25T11:05:37;7.38;;;4.80;;
9100;SDS011;4586;52.518;13.486;2022-09-25T11:09:41;7.70;;;5.32;;
9100;SDS011;4586;52.518;13.486;2022-09-25T11:13:49;12.77;;;7.43;;
9100;SDS011;4586;52.518;13.486;2022-09-25T11:17:52;7.90;;;6.10;;
9100;SDS011;4586;52.518;13.486;2022-09-25T11:21:56;8.15;;;5.03;;
9100;SDS011;4586;52.518;13.486;2022-09-25T11:26:02;7.07;;;4.97;;
9100;SDS011;4586;52.518;13.486;2022-09-25T11:30:07;8.30;;;5.22;;
9100;SDS011;4586;52.518;13.486;2022-09-25T11:42:29;4.60;;;3.20;;
9100;SDS011;4586;52.518;13.486;2022-09-25T12:07:19;4.43;;;3.58;;
9100;SDS011;4586;52.518;13.486;2022-09-25T12:28:14;8.75;;;4.75;;
9100;SDS011;4586;52.518;13.486;2022-09-25T12:32:27;9.20;;;5.13;;
9100;SDS011;4586;52.518;13.486;2022-09-25T12:36:30;7.20;;;5.45;;
9100;SDS011;4586;52.518;13.486;2022-09-25T12:40:35;6.72;;;4.93;;
9100;SDS011;4586;52.518;13.486;2022-09-25T12:44:42;4.97;;;3.80;;
9100;SDS011;4586;52.518;13.486;2022-09-25T12:48:46;7.22;;;4.25;;
9100;SDS011;4586;52.518;13.486;2022-09-25T12:52:54;5.78;;;3.50;;
9100;SDS011;4586;52.518;13.486;2022-09-25T13:01:02;4.70;;;3.30;;
9100;SDS011;4586;52.518;13.486;2022-09-25T13:05:10;5.05;;;3.25;;
9100;SDS011;4586;52.518;13.486;2022-09-25T13:09:17;4.60;;;3.08;;
9100;SDS011;4586;52.518;13.486;2022-09-25T13:13:19;3.55;;;2.17;;
9100;SDS011;4586;52.518;13.486;2022-09-25T13:17:21;3.70;;;2.55;;
9100;SDS011;4586;52.518;13.486;2022-09-25T13:21:23;3.83;;;2.55;;
9100;SDS011;4586;52.518;13.486;2022-09-25T13:25:25;3.83;;;2.47;;
9100;SDS011;4586;52.518;13.486;2022-09-25T13:29:27;4.85;;;3.50;;
9100;SDS011;4586;52.518;13.486;2022-09-25T13:33:31;4.18;;;2.70;;
9100;SDS011;4586;52.518;13.486;2022-09-25T13:37:34;17.00;;;10.77;;
9100;SDS011;4586;52.518;13.486;2022-09-25T13:41:36;4.82;;;3.25;;
9100;SDS011;4586;52.518;13.486;2022-09-25T13:45:46;3.78;;;2.90;;
9100;SDS011;4586;52.518;13.486;2022-09-25T13:50:16;4.70;;;3.85;;
9100;SDS011;4586;52.518;13.486;2022-09-25T13:58:18;4.68;;;2.90;;
9100;SDS011;4586;52.518;13.486;2022-09-25T14:02:32;3.25;;;2.85;;
9100;SDS011;4586;52.518;13.486;2022-09-25T14:06:37;3.38;;;3.08;;
9100;SDS011;4586;52.518;13.486;2022-09-25T14:10:48;4.32;;;3.00;;
9100;SDS011;4586;52.518;13.486;2022-09-25T14:18:57;7.35;;;4.75;;
9100;SDS011;4586;52.518;13.486;2022-09-25T14:23:01;4.60;;;3.42;;
9100;SDS011;4586;52.518;13.486;2022-09-25T14:27:15;4.63;;;3.97;;
9100;SDS011;4586;52.518;13.486;2022-09-25T14:43:52;5.68;;;4.13;;
9100;SDS011;4586;52.518;13.486;2022-09-25T14:47:56;5.15;;;3.72;;
9100;SDS011;4586;52.518;13.486;2022-09-25T14:52:02;4.68;;;3.72;;
9100;SDS011;4586;52.518;13.486;2022-09-25T14:56:04;3.60;;;3.05;;
9100;SDS011;4586;52.518;13.486;2022-09-25T15:00:06;6.25;;;4.13;;
9100;SDS011;4586;52.518;13.486;2022-09-25T15:04:08;4.32;;;3.80;;
9100;SDS011;4586;52.518;13.486;2022-09-25T15:08:19;4.38;;;3.47;;
9100;SDS011;4586;52.518;13.486;2022-09-25T15:12:30;4.38;;;3.25;;
9100;SDS011;4586;52.518;13.486;2022-09-25T15:16:32;6.82;;;3.28;;
9100;SDS011;4586;52.518;13.486;2022-09-25T15:20:33;7.65;;;3.90;;
9100;SDS011;4586;52.518;13.486;2022-09-25T15:24:34;5.55;;;3.80;;
9100;SDS011;4586;52.518;13.486;2022-09-25T15:28:36;6.10;;;3.80;;
9100;SDS011;4586;52.518;13.486;2022-09-25T15:32:38;4.47;;;3.60;;
9100;SDS011;4586;52.518;13.486;2022-09-25T15:36:39;6.32;;;3.47;;
9100;SDS011;4586;52.518;13.486;2022-09-25T15:40:40;4.03;;;3.08;;
9100;SDS011;4586;52.518;13.486;2022-09-25T15:44:41;3.22;;;2.92;;
9100;SDS011;4586;52.518;13.486;2022-09-25T15:48:51;3.80;;;2.63;;
9100;SDS011;4586;52.518;13.486;2022-09-25T15:52:57;6.15;;;3.17;;
9100;SDS011;4586;52.518;13.486;2022-09-25T15:56:59;3.55;;;3.08;;
9100;SDS011;4586;52.518;13.486;2022-09-25T16:01:01;5.85;;;3.38;;
9100;SDS011;4586;52.518;13.486;2022-09-25T16:05:02;3.30;;;2.95;;
9100;SDS011;4586;52.518;13.486;2022-09-25T16:13:20;4.03;;;3.25;;
9100;SDS011;4586;52.518;13.486;2022-09-25T16:17:23;4.18;;;3.20;;
9100;SDS011;4586;52.518;13.486;2022-09-25T16:21:32;5.25;;;2.75;;
9100;SDS011;4586;52.518;13.486;2022-09-25T16:25:34;4.53;;;3.33;;
9100;SDS011;4586;52.518;13.486;2022-09-25T16:29:36;3.78;;;3.15;;
9100;SDS011;4586;52.518;13.486;2022-09-25T16:33:39;3.78;;;3.03;;
9100;SDS011;4586;52.518;13.486;2022-09-25T16:37:41;3.50;;;2.78;;
9100;SDS011;4586;52.518;13.486;2022-09-25T16:41:43;4.45;;;3.03;;
9100;SDS011;4586;52.518;13.486;2022-09-25T16:45:56;5.30;;;3.30;;
9100;SDS011;4586;52.518;13.486;2022-09-25T16:49:58;3.97;;;3.20;;
9100;SDS011;4586;52.518;13.486;2022-09-25T16:53:59;4.03;;;3.28;;
9100;SDS011;4586;52.518;13.486;2022-09-25T16:58:00;3.92;;;3.03;;
9100;SDS011;4586;52.518;13.486;2022-09-25T17:02:03;3.28;;;2.80;;
9100;SDS011;4586;52.518;13.486;2022-09-25T17:06:08;3.83;;;2.53;;
9100;SDS011;4586;52.518;13.486;2022-09-25T17:10:12;3.40;;;2.42;;
9100;SDS011;4586;52.518;13.486;2022-09-25T17:14:21;3.30;;;2.90;;
9100;SDS011;4586;52.518;13.486;2022-09-25T17:18:23;3.05;;;2.70;;
9100;SDS011;4586;52.518;13.486;2022-09-25T17:22:24;4.95;;;2.55;;
9100;SDS011;4586;52.518;13.486;2022-09-25T17:26:25;4.15;;;2.80;;
9100;SDS011;4586;52.518;13.486;2022-09-25T17:30:26;3.83;;;2.58;;
9100;SDS011;4586;52.518;13.486;2022-09-25T17:34:28;4.05;;;2.70;;
9100;SDS011;4586;52.518;13.486;2022-09-25T17:38:30;3.85;;;2.72;;
9100;SDS011;4586;52.518;13.486;2022-09-25T17:42:31;3.72;;;2.50;;
9100;SDS011;4586;52.518;13.486;2022-09-25T17:46:32;5.47;;;2.97;;
9100;SDS011;4586;52.518;13.486;2022-09-25T17:50:33;3.60;;;2.90;;
9100;SDS011;4586;52.518;13.486;2022-09-25T17:54:34;2.88;;;2.20;;
9100;SDS011;4586;52.518;13.486;2022-09-25T17:58:35;2.67;;;2.13;;
9100;SDS011;4586;52.518;13.486;2022-09-25T18:02:36;3.00;;;2.20;;
9100;SDS011;4586;52.518;13.486;2022-09-25T18:06:37;2.35;;;2.05;;
9100;SDS011;4586;52.518;13.486;2022-09-25T18:10:38;3.05;;;2.40;;
9100;SDS011;4586;52.518;13.486;2022-09-25T18:14:39;3.60;;;2.67;;
9100;SDS011;4586;52.518;13.486;2022-09-25T18:18:41;3.53;;;2.65;;
9100;SDS011;4586;52.518;13.486;2022-09-25T18:22:42;2.35;;;2.15;;
9100;SDS011;4586;52.518;13.486;2022-09-25T18:26:43;3.00;;;2.60;;
9100;SDS011;4586;52.518;13.486;2022-09-25T18:30:44;4.22;;;3.22;;
9100;SDS011;4586;52.518;13.486;2022-09-25T18:34:45;2.58;;;2.38;;
9100;SDS011;4586;52.518;13.486;2022-09-25T18:38:46;5.00;;;3.00;;
9100;SDS011;4586;52.518;13.486;2022-09-25T18:42:47;3.90;;;2.80;;
9100;SDS011;4586;52.518;13.486;2022-09-25T18:46:49;4.03;;;2.55;;
9100;SDS011;4586;52.518;13.486;2022-09-25T18:50:50;2.90;;;1.92;;
9100;SDS011;4586;52.518;13.486;2022-09-25T18:54:51;3.28;;;2.25;;
9100;SDS011;4586;52.518;13.486;2022-09-25T18:58:52;3.17;;;2.33;;
9100;SDS011;4586;52.518;13.486;2022-09-25T19:02:53;2.70;;;2.38;;
9100;SDS011;4586;52.518;13.486;2022-09-25T19:06:54;2.65;;;2.40;;
9100;SDS011;4586;52.518;13.486;2022-09-25T19:10:56;2.92;;;2.13;;
9100;SDS011;4586;52.518;13.486;2022-09-25T19:14:57;3.72;;;2.63;;
9100;SDS011;4586;52.518;13.486;2022-09-25T19:18:58;3.20;;;2.30;;
9100;SDS011;4586;52.518;13.486;2022-09-25T19:22:59;4.82;;;2.15;;
9100;SDS011;4586;52.518;13.486;2022-09-25T19:27:00;4.32;;;2.92;;
9100;SDS011;4586;52.518;13.486;2022-09-25T19:35:02;3.38;;;2.38;;
9100;SDS011;4586;52.518;13.486;2022-09-25T19:39:03;4.03;;;3.00;;
9100;SDS011;4586;52.518;13.486;2022-09-25T19:43:04;3.67;;;2.17;;
9100;SDS011;4586;52.518;13.486;2022-09-25T19:47:05;3.97;;;2.28;;
9100;SDS011;4586;52.518;13.486;2022-09-25T19:51:06;3.58;;;2.47;;
9100;SDS011;4586;52.518;13.486;2022-09-25T19:55:07;3.05;;;2.47;;
9100;SDS011;4586;52.518;13.486;2022-09-25T19:59:12;4.57;;;2.42;;
9100;SDS011;4586;52.518;13.486;2022-09-25T20:03:13;3.90;;;2.92;;
9100;SDS011;4586;52.518;13.486;2022-09-25T20:07:14;3.80;;;2.88;;
9100;SDS011;4586;52.518;13.486;2022-09-25T20:11:17;3.75;;;3.00;;
9100;SDS011;4586;52.518;13.486;2022-09-25T20:15:19;3.75;;;2.72;;
9100;SDS011;4586;52.518;13.486;2022-09-25T20:19:20;3.63;;;2.72;;
9100;SDS011;4586;52.518;13.486;2022-09-25T20:23:21;3.85;;;2.70;;
9100;SDS011;4586;52.518;13.486;2022-09-25T20:27:22;3.75;;;2.30;;
9100;SDS011;4586;52.518;13.486;2022-09-25T20:31:23;4.47;;;2.38;;
9100;SDS011;4586;52.518;13.486;2022-09-25T20:35:24;4.68;;;2.58;;
9100;SDS011;4586;52.518;13.486;2022-09-25T20:39:25;3.78;;;2.35;;
9100;SDS011;4586;52.518;13.486;2022-09-25T20:43:26;2.85;;;2.28;;
9100;SDS011;4586;52.518;13.486;2022-09-25T20:47:28;2.90;;;2.38;;
9100;SDS011;4586;52.518;13.486;2022-09-25T20:51:30;2.40;;;1.60;;
9100;SDS011;4586;52.518;13.486;2022-09-25T20:55:33;2.88;;;2.00;;
9100;SDS011;4586;52.518;13.486;2022-09-25T20:59:34;2.97;;;1.90;;
9100;SDS011;4586;52.518;13.486;2022-09-25T21:03:36;2.88;;;2.38;;
9100;SDS011;4586;52.518;13.486;2022-09-25T21:07:37;2.45;;;2.10;;
9100;SDS011;4586;52.518;13.486;2022-09-25T21:11:38;2.28;;;2.08;;
9100;SDS011;4586;52.518;13.486;2022-09-25T21:15:39;2.50;;;2.30;;
9100;SDS011;4586;52.518;13.486;2022-09-25T21:19:40;3.58;;;2.60;;
9100;SDS011;4586;52.518;13.486;2022-09-25T21:23:41;4.63;;;2.65;;
9100;SDS011;4586;52.518;13.486;2022-09-25T21:27:42;3.13;;;2.58;;
9100;SDS011;4586;52.518;13.486;2022-09-25T21:31:44;3.30;;;2.33;;
9100;SDS011;4586;52.518;13.486;2022-09-25T21:35:45;3.53;;;2.97;;
9100;SDS011;4586;52.518;13.486;2022-09-25T21:39:46;4.20;;;2.55;;
9100;SDS011;4586;52.518;13.486;2022-09-25T21:43:50;2.10;;;1.67;;
9100;SDS011;4586;52.518;13.486;2022-09-25T21:47:51;2.60;;;2.25;;
9100;SDS011;4586;52.518;13.486;2022-09-25T21:51:52;3.42;;;2.30;;
9100;SDS011;4586;52.518;13.486;2022-09-25T22:00:07;3.20;;;2.30;;
9100;SDS011;4586;52.518;13.486;2022-09-25T22:04:10;3.40;;;2.35;;
9100;SDS011;4586;52.518;13.486;2022-09-25T22:08:12;2.90;;;2.33;;
9100;SDS011;4586;52.518;13.486;2022-09-25T22:12:12;2.67;;;2.08;;
9100;SDS011;4586;52.518;13.486;2022-09-25T22:16:15;3.15;;;2.22;;
9100;SDS011;4586;52.518;13.486;2022-09-25T22:20:16;2.25;;;2.05;;
9100;SDS011;4586;52.518;13.486;2022-09-25T22:24:17;2.83;;;2.10;;
9100;SDS011;4586;52.518;13.486;2022-09-25T22:28:19;3.70;;;2.22;;
9100;SDS011;4586;52.518;13.486;2022-09-25T22:32:20;2.03;;;1.80;;
9100;SDS011;4586;52.518;13.486;2022-09-25T22:36:21;1.95;;;1.70;;
9100;SDS011;4586;52.518;13.486;2022-09-25T22:40:22;1.73;;;1.33;;
9100;SDS011;4586;52.518;13.486;2022-09-25T22:44:23;3.25;;;1.60;;
9100;SDS011;4586;52.518;13.486;2022-09-25T22:48:24;3.22;;;1.65;;
9100;SDS011;4586;52.518;13.486;2022-09-25T22:52:25;1.95;;;1.75;;
9100;SDS011;4586;52.518;13.486;2022-09-25T22:56:32;1.73;;;1.27;;
9100;SDS011;4586;52.518;13.486;2022-09-25T23:00:34;1.50;;;1.40;;
9100;SDS011;4586;52.518;13.486;2022-09-25T23:04:35;1.70;;;1.55;;
9100;SDS011;4586;52.518;13.486;2022-09-25T23:08:36;2.17;;;1.52;;
9100;SDS011;4586;52.518;13.486;2022-09-25T23:12:37;1.50;;;1.40;;
9100;SDS011;4586;52.518;13.486;2022-09-25T23:16:38;2.22;;;1.58;;
9100;SDS011;4586;52.518;13.486;2022-09-25T23:20:39;1.90;;;1.45;;
9100;SDS011;4586;52.518;13.486;2022-09-25T23:24:40;1.58;;;1.48;;
9100;SDS011;4586;52.518;13.486;2022-09-25T23:28:41;2.47;;;1.80;;
9100;SDS011;4586;52.518;13.486;2022-09-25T23:32:42;1.63;;;1.38;;
9100;SDS011;4586;52.518;13.486;2022-09-25T23:36:43;1.98;;;1.65;;
9100;SDS011;4586;52.518;13.486;2022-09-25T23:40:44;1.83;;;1.67;;
9100;SDS011;4586;52.518;13.486;2022-09-25T23:44:45;1.70;;;1.42;;
9100;SDS011;4586;52.518;13.486;2022-09-25T23:48:46;1.55;;;1.42;;
9100;SDS011;4586;52.518;13.486;2022-09-25T23:52:47;3.33;;;1.83;;
9100;SDS011;4586;52.518;13.486;2022-09-25T23:56:48;1.85;;;1.48;;
